sensor_id;sensor_type;location;lat;lon;timestamp;temperature;humidity
12981;DHT22;6555;50.468;8.480;2022-08-19T00:02:11;25.40;43.80
12981;DHT22;6555;50.468;8.480;2022-08-19T00:07:43;25.30;43.50
12981;DHT22;6555;50.468;8.480;2022-08-19T00:12:59;25.40;43.90
12981;DHT22;6555;50.468;8.480;2022-08-19T00:18:29;25.30;43.60
12981;DHT22;6555;50.468;8.480;2022-08-19T00:23:47;25.30;43.70
12981;DHT22;6555;50.468;8.480;2022-08-19T00:29:21;25.30;43.60
12981;DHT22;6555;50.468;8.480;2022-08-19T00:34:37;25.20;44.00
12981;DHT22;6555;50.468;8.480;2022-08-19T00:40:11;25.10;43.80
12981;DHT22;6555;50.468;8.480;2022-08-19T00:45:28;25.10;44.30
12981;DHT22;6555;50.468;8.480;2022-08-19T00:50:58;25.00;44.00
12981;DHT22;6555;50.468;8.480;2022-08-19T00:56:16;25.00;44.30
12981;DHT22;6555;50.468;8.480;2022-08-19T01:01:48;24.90;44.10
12981;DHT22;6555;50.468;8.480;2022-08-19T01:07:04;24.80;44.30
12981;DHT22;6555;50.468;8.480;2022-08-19T01:12:36;24.80;44.00
12981;DHT22;6555;50.468;8.480;2022-08-19T01:17:53;24.70;44.50
12981;DHT22;6555;50.468;8.480;2022-08-19T01:23:25;24.70;44.40
12981;DHT22;6555;50.468;8.480;2022-08-19T01:28:58;24.60;44.90
12981;DHT22;6555;50.468;8.480;2022-08-19T01:34:29;24.60;44.40
12981;DHT22;6555;50.468;8.480;2022-08-19T01:39:47;24.50;44.70
12981;DHT22;6555;50.468;8.480;2022-08-19T01:45:26;24.40;44.30
12981;DHT22;6555;50.468;8.480;2022-08-19T01:50:42;24.30;45.00
12981;DHT22;6555;50.468;8.480;2022-08-19T01:56:13;24.20;44.60
12981;DHT22;6555;50.468;8.480;2022-08-19T02:01:30;24.20;45.20
12981;DHT22;6555;50.468;8.480;2022-08-19T02:07:00;24.10;44.70
12981;DHT22;6555;50.468;8.480;2022-08-19T02:12:17;24.10;45.30
12981;DHT22;6555;50.468;8.480;2022-08-19T02:17:51;24.00;44.90
12981;DHT22;6555;50.468;8.480;2022-08-19T02:23:09;23.90;45.40
12981;DHT22;6555;50.468;8.480;2022-08-19T02:28:42;23.80;44.90
12981;DHT22;6555;50.468;8.480;2022-08-19T02:33:58;23.70;45.50
12981;DHT22;6555;50.468;8.480;2022-08-19T02:39:28;23.60;44.90
12981;DHT22;6555;50.468;8.480;2022-08-19T02:44:46;23.50;45.60
12981;DHT22;6555;50.468;8.480;2022-08-19T02:50:17;23.40;45.30
12981;DHT22;6555;50.468;8.480;2022-08-19T02:55:33;23.30;45.90
12981;DHT22;6555;50.468;8.480;2022-08-19T03:01:06;23.30;45.40
12981;DHT22;6555;50.468;8.480;2022-08-19T03:06:23;23.20;46.10
12981;DHT22;6555;50.468;8.480;2022-08-19T03:11:53;23.10;45.50
12981;DHT22;6555;50.468;8.480;2022-08-19T03:17:11;23.00;46.20
12981;DHT22;6555;50.468;8.480;2022-08-19T03:22:41;23.00;45.90
12981;DHT22;6555;50.468;8.480;2022-08-19T03:27:57;23.00;46.50
12981;DHT22;6555;50.468;8.480;2022-08-19T03:33:29;22.90;46.00
12981;DHT22;6555;50.468;8.480;2022-08-19T03:38:49;22.90;46.50
12981;DHT22;6555;50.468;8.480;2022-08-19T03:44:20;22.80;46.80
12981;DHT22;6555;50.468;8.480;2022-08-19T03:49:39;22.80;46.50
12981;DHT22;6555;50.468;8.480;2022-08-19T03:55:09;22.80;46.20
12981;DHT22;6555;50.468;8.480;2022-08-19T04:00:42;22.80;46.60
12981;DHT22;6555;50.468;8.480;2022-08-19T04:06:18;22.70;46.80
12981;DHT22;6555;50.468;8.480;2022-08-19T04:11:39;22.70;47.10
12981;DHT22;6555;50.468;8.480;2022-08-19T04:17:09;22.60;46.60
12981;DHT22;6555;50.468;8.480;2022-08-19T04:22:29;22.70;47.20
12981;DHT22;6555;50.468;8.480;2022-08-19T04:27:59;22.60;46.70
12981;DHT22;6555;50.468;8.480;2022-08-19T04:33:17;22.60;47.20
12981;DHT22;6555;50.468;8.480;2022-08-19T04:38:54;22.60;46.80
12981;DHT22;6555;50.468;8.480;2022-08-19T04:44:11;22.60;47.50
12981;DHT22;6555;50.468;8.480;2022-08-19T04:49:41;22.60;46.90
12981;DHT22;6555;50.468;8.480;2022-08-19T04:54:59;22.60;47.40
12981;DHT22;6555;50.468;8.480;2022-08-19T05:00:29;22.60;47.20
12981;DHT22;6555;50.468;8.480;2022-08-19T05:05:47;22.60;47.50
12981;DHT22;6555;50.468;8.480;2022-08-19T05:11:21;22.50;47.10
12981;DHT22;6555;50.468;8.480;2022-08-19T05:16:38;22.60;47.70
12981;DHT22;6555;50.468;8.480;2022-08-19T05:22:28;22.50;47.10
12981;DHT22;6555;50.468;8.480;2022-08-19T05:27:51;22.50;47.80
12981;DHT22;6555;50.468;8.480;2022-08-19T05:33:22;22.50;47.60
12981;DHT22;6555;50.468;8.480;2022-08-19T05:38:38;22.50;48.20
12981;DHT22;6555;50.468;8.480;2022-08-19T05:44:11;22.60;47.70
12981;DHT22;6555;50.468;8.480;2022-08-19T05:49:28;22.60;48.60
12981;DHT22;6555;50.468;8.480;2022-08-19T05:54:58;22.70;48.20
12981;DHT22;6555;50.468;8.480;2022-08-19T06:00:16;22.80;48.90
12981;DHT22;6555;50.468;8.480;2022-08-19T06:05:46;22.90;48.80
12981;DHT22;6555;50.468;8.480;2022-08-19T06:11:17;23.00;49.10
12981;DHT22;6555;50.468;8.480;2022-08-19T06:16:49;23.20;49.30
12981;DHT22;6555;50.468;8.480;2022-08-19T06:22:10;23.30;49.50
12981;DHT22;6555;50.468;8.480;2022-08-19T06:27:40;23.40;48.80
12981;DHT22;6555;50.468;8.480;2022-08-19T06:33:19;23.60;49.40
12981;DHT22;6555;50.468;8.480;2022-08-19T06:38:49;23.80;49.10
12981;DHT22;6555;50.468;8.480;2022-08-19T06:44:06;24.00;49.50
12981;DHT22;6555;50.468;8.480;2022-08-19T06:49:40;24.20;49.10
12981;DHT22;6555;50.468;8.480;2022-08-19T06:54:56;24.40;49.70
12981;DHT22;6555;50.468;8.480;2022-08-19T07:00:26;24.60;49.10
12981;DHT22;6555;50.468;8.480;2022-08-19T07:05:44;24.80;49.40
12981;DHT22;6555;50.468;8.480;2022-08-19T07:11:17;25.00;49.10
12981;DHT22;6555;50.468;8.480;2022-08-19T07:16:36;25.20;49.20
12981;DHT22;6555;50.468;8.480;2022-08-19T07:22:10;25.30;48.80
12981;DHT22;6555;50.468;8.480;2022-08-19T07:27:34;25.60;48.90
12981;DHT22;6555;50.468;8.480;2022-08-19T07:33:08;25.80;48.60
12981;DHT22;6555;50.468;8.480;2022-08-19T07:38:26;26.00;48.70
12981;DHT22;6555;50.468;8.480;2022-08-19T07:44:01;26.20;48.30
12981;DHT22;6555;50.468;8.480;2022-08-19T07:49:19;26.30;48.10
12981;DHT22;6555;50.468;8.480;2022-08-19T07:54:51;26.40;48.00
12981;DHT22;6555;50.468;8.480;2022-08-19T08:00:08;26.60;47.90
12981;DHT22;6555;50.468;8.480;2022-08-19T08:05:38;26.70;47.60
12981;DHT22;6555;50.468;8.480;2022-08-19T08:11:15;26.80;47.50
12981;DHT22;6555;50.468;8.480;2022-08-19T08:16:45;26.90;47.30
12981;DHT22;6555;50.468;8.480;2022-08-19T08:22:02;27.00;47.60
12981;DHT22;6555;50.468;8.480;2022-08-19T08:27:54;27.00;47.30
12981;DHT22;6555;50.468;8.480;2022-08-19T08:33:11;27.00;47.30
12981;DHT22;6555;50.468;8.480;2022-08-19T08:38:48;27.00;47.40
12981;DHT22;6555;50.468;8.480;2022-08-19T08:44:06;27.10;47.50
12981;DHT22;6555;50.468;8.480;2022-08-19T08:49:43;27.20;47.60
12981;DHT22;6555;50.468;8.480;2022-08-19T08:55:08;27.40;47.40
12981;DHT22;6555;50.468;8.480;2022-08-19T09:00:44;27.60;47.20
12981;DHT22;6555;50.468;8.480;2022-08-19T09:06:23;27.80;46.80
12981;DHT22;6555;50.468;8.480;2022-08-19T09:12:00;28.10;46.80
12981;DHT22;6555;50.468;8.480;2022-08-19T09:17:42;28.20;46.50
12981;DHT22;6555;50.468;8.480;2022-08-19T09:22:58;28.30;46.30
12981;DHT22;6555;50.468;8.480;2022-08-19T09:28:30;28.30;46.20
12981;DHT22;6555;50.468;8.480;2022-08-19T09:33:53;28.40;46.20
12981;DHT22;6555;50.468;8.480;2022-08-19T09:39:36;28.50;46.20
12981;DHT22;6555;50.468;8.480;2022-08-19T09:44:52;28.70;45.80
12981;DHT22;6555;50.468;8.480;2022-08-19T09:50:26;28.90;46.10
12981;DHT22;6555;50.468;8.480;2022-08-19T09:55:43;29.10;45.50
12981;DHT22;6555;50.468;8.480;2022-08-19T10:01:19;29.20;45.60
12981;DHT22;6555;50.468;8.480;2022-08-19T10:06:38;29.30;45.00
12981;DHT22;6555;50.468;8.480;2022-08-19T10:12:09;29.40;45.20
12981;DHT22;6555;50.468;8.480;2022-08-19T10:17:27;29.60;44.90
12981;DHT22;6555;50.468;8.480;2022-08-19T10:23:10;29.80;44.90
12981;DHT22;6555;50.468;8.480;2022-08-19T10:28:27;29.90;44.20
12981;DHT22;6555;50.468;8.480;2022-08-19T10:34:01;30.00;44.90
12981;DHT22;6555;50.468;8.480;2022-08-19T10:39:20;30.10;43.80
12981;DHT22;6555;50.468;8.480;2022-08-19T10:44:58;30.20;44.10
12981;DHT22;6555;50.468;8.480;2022-08-19T10:50:14;30.40;43.80
12981;DHT22;6555;50.468;8.480;2022-08-19T10:56:03;30.50;44.00
12981;DHT22;6555;50.468;8.480;2022-08-19T11:01:38;30.70;43.20
12981;DHT22;6555;50.468;8.480;2022-08-19T11:07:09;30.80;43.50
12981;DHT22;6555;50.468;8.480;2022-08-19T11:12:28;31.10;43.10
12981;DHT22;6555;50.468;8.480;2022-08-19T11:17:58;31.20;43.10
12981;DHT22;6555;50.468;8.480;2022-08-19T11:23:21;31.40;42.60
12981;DHT22;6555;50.468;8.480;2022-08-19T11:28:52;31.50;42.50
12981;DHT22;6555;50.468;8.480;2022-08-19T11:34:12;31.50;41.60
12981;DHT22;6555;50.468;8.480;2022-08-19T11:39:43;31.60;41.80
12981;DHT22;6555;50.468;8.480;2022-08-19T11:45:02;31.70;41.20
12981;DHT22;6555;50.468;8.480;2022-08-19T11:50:19;31.80;41.40
12981;DHT22;6555;50.468;8.480;2022-08-19T11:55:53;31.90;41.30
12981;DHT22;6555;50.468;8.480;2022-08-19T12:01:14;32.10;40.90
12981;DHT22;6555;50.468;8.480;2022-08-19T12:06:45;32.20;40.80
12981;DHT22;6555;50.468;8.480;2022-08-19T12:12:01;32.40;40.10
12981;DHT22;6555;50.468;8.480;2022-08-19T12:17:32;32.50;40.30
12981;DHT22;6555;50.468;8.480;2022-08-19T12:22:49;32.60;39.10
12981;DHT22;6555;50.468;8.480;2022-08-19T12:28:20;32.60;39.50
12981;DHT22;6555;50.468;8.480;2022-08-19T12:33:37;32.50;38.90
12981;DHT22;6555;50.468;8.480;2022-08-19T12:39:08;32.50;39.20
12981;DHT22;6555;50.468;8.480;2022-08-19T12:44:24;32.50;38.60
12981;DHT22;6555;50.468;8.480;2022-08-19T12:49:57;32.40;39.30
12981;DHT22;6555;50.468;8.480;2022-08-19T12:55:14;32.30;38.20
12981;DHT22;6555;50.468;8.480;2022-08-19T13:00:45;32.30;39.00
12981;DHT22;6555;50.468;8.480;2022-08-19T13:06:02;32.30;37.90
12981;DHT22;6555;50.468;8.480;2022-08-19T13:11:36;32.40;38.30
12981;DHT22;6555;50.468;8.480;2022-08-19T13:16:53;32.40;37.50
12981;DHT22;6555;50.468;8.480;2022-08-19T13:22:24;32.40;38.10
12981;DHT22;6555;50.468;8.480;2022-08-19T13:27:42;32.40;37.20
12981;DHT22;6555;50.468;8.480;2022-08-19T13:33:12;32.30;38.00
12981;DHT22;6555;50.468;8.480;2022-08-19T13:38:31;32.30;37.40
12981;DHT22;6555;50.468;8.480;2022-08-19T13:44:02;32.30;37.70
12981;DHT22;6555;50.468;8.480;2022-08-19T13:49:19;32.50;37.00
12981;DHT22;6555;50.468;8.480;2022-08-19T13:54:50;32.70;36.80
12981;DHT22;6555;50.468;8.480;2022-08-19T14:00:10;32.80;36.30
12981;DHT22;6555;50.468;8.480;2022-08-19T14:05:41;32.80;36.50
12981;DHT22;6555;50.468;8.480;2022-08-19T14:10:58;32.80;35.90
12981;DHT22;6555;50.468;8.480;2022-08-19T14:16:29;32.70;36.30
12981;DHT22;6555;50.468;8.480;2022-08-19T14:21:45;32.50;35.80
12981;DHT22;6555;50.468;8.480;2022-08-19T14:27:16;32.40;36.40
12981;DHT22;6555;50.468;8.480;2022-08-19T14:32:33;32.30;35.90
12981;DHT22;6555;50.468;8.480;2022-08-19T14:38:05;32.20;36.30
12981;DHT22;6555;50.468;8.480;2022-08-19T14:43:24;32.10;36.00
12981;DHT22;6555;50.468;8.480;2022-08-19T14:48:55;32.20;36.50
12981;DHT22;6555;50.468;8.480;2022-08-19T14:54:17;32.30;36.00
12981;DHT22;6555;50.468;8.480;2022-08-19T14:59:48;32.50;36.50
12981;DHT22;6555;50.468;8.480;2022-08-19T15:05:19;32.80;36.00
12981;DHT22;6555;50.468;8.480;2022-08-19T15:10:37;33.10;35.90
12981;DHT22;6555;50.468;8.480;2022-08-19T15:16:10;33.30;35.70
12981;DHT22;6555;50.468;8.480;2022-08-19T15:21:28;33.40;35.00
12981;DHT22;6555;50.468;8.480;2022-08-19T15:27:01;33.50;35.30
12981;DHT22;6555;50.468;8.480;2022-08-19T15:32:19;33.60;34.60
12981;DHT22;6555;50.468;8.480;2022-08-19T15:37:50;33.80;34.50
12981;DHT22;6555;50.468;8.480;2022-08-19T15:43:07;33.90;34.10
12981;DHT22;6555;50.468;8.480;2022-08-19T15:48:38;33.90;34.40
12981;DHT22;6555;50.468;8.480;2022-08-19T15:54:06;34.10;34.20
12981;DHT22;6555;50.468;8.480;2022-08-19T15:59:37;34.00;34.00
12981;DHT22;6555;50.468;8.480;2022-08-19T16:05:15;33.90;33.10
12981;DHT22;6555;50.468;8.480;2022-08-19T16:11:02;33.90;33.50
12981;DHT22;6555;50.468;8.480;2022-08-19T16:16:18;33.90;33.30
12981;DHT22;6555;50.468;8.480;2022-08-19T16:21:53;33.90;33.60
12981;DHT22;6555;50.468;8.480;2022-08-19T16:27:10;33.90;33.00
12981;DHT22;6555;50.468;8.480;2022-08-19T16:32:42;33.80;33.30
12981;DHT22;6555;50.468;8.480;2022-08-19T16:37:59;33.90;32.50
12981;DHT22;6555;50.468;8.480;2022-08-19T16:43:30;33.70;32.80
12981;DHT22;6555;50.468;8.480;2022-08-19T16:48:48;33.70;32.30
12981;DHT22;6555;50.468;8.480;2022-08-19T16:54:19;33.60;33.50
12981;DHT22;6555;50.468;8.480;2022-08-19T16:59:39;33.50;32.50
12981;DHT22;6555;50.468;8.480;2022-08-19T17:05:10;33.50;32.80
12981;DHT22;6555;50.468;8.480;2022-08-19T17:10:27;33.30;32.20
12981;DHT22;6555;50.468;8.480;2022-08-19T17:16:21;33.20;32.80
12981;DHT22;6555;50.468;8.480;2022-08-19T17:21:39;33.00;32.70
12981;DHT22;6555;50.468;8.480;2022-08-19T17:27:10;33.00;33.10
12981;DHT22;6555;50.468;8.480;2022-08-19T17:32:27;32.80;32.10
12981;DHT22;6555;50.468;8.480;2022-08-19T17:37:57;32.70;32.50
12981;DHT22;6555;50.468;8.480;2022-08-19T17:43:15;32.50;32.30
12981;DHT22;6555;50.468;8.480;2022-08-19T17:48:50;32.30;32.50
12981;DHT22;6555;50.468;8.480;2022-08-19T17:54:13;32.10;32.50
12981;DHT22;6555;50.468;8.480;2022-08-19T17:59:49;32.00;32.90
12981;DHT22;6555;50.468;8.480;2022-08-19T18:05:06;31.80;32.30
12981;DHT22;6555;50.468;8.480;2022-08-19T18:10:37;31.70;32.70
12981;DHT22;6555;50.468;8.480;2022-08-19T18:15:54;31.60;32.50
12981;DHT22;6555;50.468;8.480;2022-08-19T18:21:25;31.40;32.80
12981;DHT22;6555;50.468;8.480;2022-08-19T18:26:45;31.20;32.70
12981;DHT22;6555;50.468;8.480;2022-08-19T18:32:17;31.00;33.10
12981;DHT22;6555;50.468;8.480;2022-08-19T18:37:33;30.80;32.50
12981;DHT22;6555;50.468;8.480;2022-08-19T18:43:04;30.60;32.80
12981;DHT22;6555;50.468;8.480;2022-08-19T18:48:39;30.40;32.80
12981;DHT22;6555;50.468;8.480;2022-08-19T18:54:29;30.20;33.10
12981;DHT22;6555;50.468;8.480;2022-08-19T18:59:46;30.00;33.20
12981;DHT22;6555;50.468;8.480;2022-08-19T19:05:18;29.90;33.00
12981;DHT22;6555;50.468;8.480;2022-08-19T19:10:36;29.80;33.10
12981;DHT22;6555;50.468;8.480;2022-08-19T19:16:07;29.70;33.30
12981;DHT22;6555;50.468;8.480;2022-08-19T19:21:34;29.50;33.30
12981;DHT22;6555;50.468;8.480;2022-08-19T19:27:06;29.40;33.50
12981;DHT22;6555;50.468;8.480;2022-08-19T19:32:26;29.30;33.60
12981;DHT22;6555;50.468;8.480;2022-08-19T19:38:00;29.20;33.80
12981;DHT22;6555;50.468;8.480;2022-08-19T19:43:17;29.10;33.90
12981;DHT22;6555;50.468;8.480;2022-08-19T19:48:55;29.00;34.00
12981;DHT22;6555;50.468;8.480;2022-08-19T19:54:14;28.90;33.50
12981;DHT22;6555;50.468;8.480;2022-08-19T19:59:44;28.80;33.60
12981;DHT22;6555;50.468;8.480;2022-08-19T20:05:00;28.70;33.70
12981;DHT22;6555;50.468;8.480;2022-08-19T20:10:31;28.60;33.80
12981;DHT22;6555;50.468;8.480;2022-08-19T20:15:48;28.50;34.20
12981;DHT22;6555;50.468;8.480;2022-08-19T20:21:18;28.40;34.00
12981;DHT22;6555;50.468;8.480;2022-08-19T20:26:36;28.30;34.30
12981;DHT22;6555;50.468;8.480;2022-08-19T20:32:08;28.10;34.40
12981;DHT22;6555;50.468;8.480;2022-08-19T20:37:25;28.00;34.60
12981;DHT22;6555;50.468;8.480;2022-08-19T20:42:56;27.90;34.20
12981;DHT22;6555;50.468;8.480;2022-08-19T20:48:13;27.80;34.40
12981;DHT22;6555;50.468;8.480;2022-08-19T20:53:43;27.70;34.30
12981;DHT22;6555;50.468;8.480;2022-08-19T20:59:00;27.60;34.50
12981;DHT22;6555;50.468;8.480;2022-08-19T21:04:31;27.40;34.60
12981;DHT22;6555;50.468;8.480;2022-08-19T21:10:01;27.30;34.90
12981;DHT22;6555;50.468;8.480;2022-08-19T21:15:18;27.20;35.00
12981;DHT22;6555;50.468;8.480;2022-08-19T21:20:49;27.00;34.90
12981;DHT22;6555;50.468;8.480;2022-08-19T21:26:06;26.90;34.70
12981;DHT22;6555;50.468;8.480;2022-08-19T21:31:38;26.80;34.80
12981;DHT22;6555;50.468;8.480;2022-08-19T21:36:54;26.70;35.90
12981;DHT22;6555;50.468;8.480;2022-08-19T21:42:40;26.70;35.10
12981;DHT22;6555;50.468;8.480;2022-08-19T21:47:58;26.60;35.40
12981;DHT22;6555;50.468;8.480;2022-08-19T21:53:28;26.50;35.30
12981;DHT22;6555;50.468;8.480;2022-08-19T21:58:45;26.50;35.50
12981;DHT22;6555;50.468;8.480;2022-08-19T22:04:19;26.50;35.40
12981;DHT22;6555;50.468;8.480;2022-08-19T22:09:35;26.30;35.70
12981;DHT22;6555;50.468;8.480;2022-08-19T22:15:07;26.20;35.70
12981;DHT22;6555;50.468;8.480;2022-08-19T22:20:28;26.20;36.00
12981;DHT22;6555;50.468;8.480;2022-08-19T22:25:59;26.10;36.00
12981;DHT22;6555;50.468;8.480;2022-08-19T22:31:16;26.00;36.20
12981;DHT22;6555;50.468;8.480;2022-08-19T22:36:47;25.90;35.60
12981;DHT22;6555;50.468;8.480;2022-08-19T22:42:04;25.80;36.00
12981;DHT22;6555;50.468;8.480;2022-08-19T22:47:35;25.70;35.60
12981;DHT22;6555;50.468;8.480;2022-08-19T22:52:56;25.70;36.10
12981;DHT22;6555;50.468;8.480;2022-08-19T22:58:28;25.50;35.90
12981;DHT22;6555;50.468;8.480;2022-08-19T23:03:47;25.30;36.20
12981;DHT22;6555;50.468;8.480;2022-08-19T23:09:19;25.20;36.70
12981;DHT22;6555;50.468;8.480;2022-08-19T23:14:38;25.00;36.70
12981;DHT22;6555;50.468;8.480;2022-08-19T23:20:10;24.80;36.30
12981;DHT22;6555;50.468;8.480;2022-08-19T23:25:31;24.70;36.90
12981;DHT22;6555;50.468;8.480;2022-08-19T23:31:03;24.60;36.90
12981;DHT22;6555;50.468;8.480;2022-08-19T23:36:20;24.50;37.30
12981;DHT22;6555;50.468;8.480;2022-08-19T23:41:51;24.40;37.10
12981;DHT22;6555;50.468;8.480;2022-08-19T23:47:08;24.30;37.80
12981;DHT22;6555;50.468;8.480;2022-08-19T23:52:42;24.30;37.40
12981;DHT22;6555;50.468;8.480;2022-08-19T23:58:01;24.30;38.00
